Main page
METAR-TAF:

METAR-TAF

Airports :

Libertador General José de San Martín Airport

Posadas, Argentina

latitude: 27-22S, longitude: 055-58W, elevation: 131 m

Current weather observation

The report was made 44 minutes ago, at 01:00 UTC
Wind 6 kt from the Southeast
Temperature 26°C
Humidity 79%
Pressure 1007 hPa
Visibility 10 km or more
no clouds below 1500 m and no cumulonimbus

METAR: SARP 210100Z 14006KT CAVOK 26/22 Q1007

Time: 22:44 (01:44 UTC)

Forecast

The report was made 2 hours and 44 minutes ago, at 23:00 UTC
Forecast valid from 21 at 00 UTC to 21 at 24 UTC
Wind 5 kt from the Southeast
Visibility 10 km or more
no clouds below 1500 m and no cumulonimbus
Becoming
from 21 at 11 UTC to 21 at 13 UTC
Visibility 10 km or more
Scattered clouds at a height of 3000 ft

TAF: SARP 202300Z 2100/2124 14005KT CAVOK TX34/2119Z TN20/2109Z BECMG 2111/2113 9999 SCT030

Weather observations and forecasts of more than 4000 airports (METAR and TAF reports).

The available stations are represented by yellow and red dots on the map.

Hover mouse over dot to see the name of the station.

Then click to see weather observations and forecasts.

To change the map : click on the green buttons with a black cross to zoom in, on the green button with a dash to zoom out, or on the green arrows for adjacent maps.


METAR-TAF: